sensor_id;sensor_type;location;lat;lon;timestamp;P1;durP1;ratioP1;P2;durP2;ratioP2
22164;SDS011;11248;52.512;13.520;2023-06-22T00:00:08;8.52;;;7.63;;
22164;SDS011;11248;52.512;13.520;2023-06-22T00:02:36;9.43;;;7.40;;
22164;SDS011;11248;52.512;13.520;2023-06-22T00:05:02;15.15;;;8.52;;
22164;SDS011;11248;52.512;13.520;2023-06-22T00:07:28;10.45;;;8.07;;
22164;SDS011;11248;52.512;13.520;2023-06-22T00:09:54;10.80;;;8.20;;
22164;SDS011;11248;52.512;13.520;2023-06-22T00:12:20;9.60;;;8.05;;
22164;SDS011;11248;52.512;13.520;2023-06-22T00:14:46;9.27;;;7.47;;
22164;SDS011;11248;52.512;13.520;2023-06-22T00:17:12;10.18;;;8.10;;
22164;SDS011;11248;52.512;13.520;2023-06-22T00:19:38;10.32;;;8.13;;
22164;SDS011;11248;52.512;13.520;2023-06-22T00:22:05;9.38;;;7.43;;
22164;SDS011;11248;52.512;13.520;2023-06-22T00:24:31;10.63;;;8.07;;
22164;SDS011;11248;52.512;13.520;2023-06-22T00:26:57;10.85;;;7.85;;
22164;SDS011;11248;52.512;13.520;2023-06-22T00:29:23;9.80;;;7.43;;
22164;SDS011;11248;52.512;13.520;2023-06-22T00:31:49;9.65;;;7.60;;
22164;SDS011;11248;52.512;13.520;2023-06-22T00:34:15;9.82;;;8.00;;
22164;SDS011;11248;52.512;13.520;2023-06-22T00:36:41;10.60;;;7.63;;
22164;SDS011;11248;52.512;13.520;2023-06-22T00:39:06;8.13;;;6.90;;
22164;SDS011;11248;52.512;13.520;2023-06-22T00:41:33;9.00;;;7.60;;
22164;SDS011;11248;52.512;13.520;2023-06-22T00:43:59;9.20;;;7.88;;
22164;SDS011;11248;52.512;13.520;2023-06-22T00:46:25;7.82;;;7.03;;
22164;SDS011;11248;52.512;13.520;2023-06-22T00:48:51;8.98;;;7.60;;
22164;SDS011;11248;52.512;13.520;2023-06-22T00:51:17;9.10;;;7.20;;
22164;SDS011;11248;52.512;13.520;2023-06-22T00:53:49;8.25;;;6.95;;
22164;SDS011;11248;52.512;13.520;2023-06-22T00:56:15;9.23;;;7.45;;
22164;SDS011;11248;52.512;13.520;2023-06-22T00:58:44;8.48;;;7.13;;
22164;SDS011;11248;52.512;13.520;2023-06-22T01:01:11;10.50;;;7.85;;
22164;SDS011;11248;52.512;13.520;2023-06-22T01:03:39;9.27;;;7.65;;
22164;SDS011;11248;52.512;13.520;2023-06-22T01:06:13;9.02;;;7.90;;
22164;SDS011;11248;52.512;13.520;2023-06-22T01:08:51;10.23;;;9.02;;
22164;SDS011;11248;52.512;13.520;2023-06-22T01:16:44;9.38;;;8.02;;
22164;SDS011;11248;52.512;13.520;2023-06-22T01:19:33;8.82;;;7.80;;
22164;SDS011;11248;52.512;13.520;2023-06-22T01:22:01;10.05;;;8.45;;
22164;SDS011;11248;52.512;13.520;2023-06-22T01:27:07;12.10;;;9.10;;
22164;SDS011;11248;52.512;13.520;2023-06-22T01:29:35;11.93;;;8.85;;
22164;SDS011;11248;52.512;13.520;2023-06-22T01:32:02;10.70;;;8.20;;
22164;SDS011;11248;52.512;13.520;2023-06-22T01:34:30;9.40;;;7.85;;
22164;SDS011;11248;52.512;13.520;2023-06-22T01:36:56;11.95;;;8.38;;
22164;SDS011;11248;52.512;13.520;2023-06-22T01:39:23;10.63;;;8.63;;
22164;SDS011;11248;52.512;13.520;2023-06-22T01:41:49;10.82;;;8.63;;
22164;SDS011;11248;52.512;13.520;2023-06-22T01:44:15;11.10;;;8.88;;
22164;SDS011;11248;52.512;13.520;2023-06-22T01:46:41;10.65;;;8.38;;
22164;SDS011;11248;52.512;13.520;2023-06-22T01:49:07;10.95;;;8.38;;
22164;SDS011;11248;52.512;13.520;2023-06-22T01:51:34;10.10;;;7.90;;
22164;SDS011;11248;52.512;13.520;2023-06-22T01:54:00;9.23;;;7.38;;
22164;SDS011;11248;52.512;13.520;2023-06-22T01:56:27;9.27;;;7.50;;
22164;SDS011;11248;52.512;13.520;2023-06-22T02:01:27;9.82;;;7.55;;
22164;SDS011;11248;52.512;13.520;2023-06-22T02:03:57;10.40;;;7.82;;
22164;SDS011;11248;52.512;13.520;2023-06-22T02:06:24;11.70;;;7.70;;
22164;SDS011;11248;52.512;13.520;2023-06-22T02:08:52;9.20;;;7.85;;
22164;SDS011;11248;52.512;13.520;2023-06-22T02:11:20;9.95;;;7.90;;
22164;SDS011;11248;52.512;13.520;2023-06-22T02:13:47;8.52;;;7.63;;
22164;SDS011;11248;52.512;13.520;2023-06-22T02:16:14;11.85;;;7.57;;
22164;SDS011;11248;52.512;13.520;2023-06-22T02:18:50;8.98;;;7.32;;
22164;SDS011;11248;52.512;13.520;2023-06-22T02:21:17;10.00;;;7.28;;
22164;SDS011;11248;52.512;13.520;2023-06-22T02:23:43;8.73;;;7.43;;
22164;SDS011;11248;52.512;13.520;2023-06-22T02:26:09;8.43;;;7.43;;
22164;SDS011;11248;52.512;13.520;2023-06-22T02:28:35;10.00;;;7.65;;
22164;SDS011;11248;52.512;13.520;2023-06-22T02:31:01;9.95;;;8.30;;
22164;SDS011;11248;52.512;13.520;2023-06-22T02:33:27;8.90;;;7.78;;
22164;SDS011;11248;52.512;13.520;2023-06-22T02:35:53;10.43;;;8.73;;
22164;SDS011;11248;52.512;13.520;2023-06-22T02:38:19;9.70;;;7.82;;
22164;SDS011;11248;52.512;13.520;2023-06-22T02:40:45;9.70;;;7.63;;
22164;SDS011;11248;52.512;13.520;2023-06-22T02:43:11;12.32;;;8.40;;
22164;SDS011;11248;52.512;13.520;2023-06-22T02:45:37;9.73;;;8.15;;
22164;SDS011;11248;52.512;13.520;2023-06-22T02:48:03;8.68;;;7.38;;
22164;SDS011;11248;52.512;13.520;2023-06-22T02:50:29;10.23;;;8.18;;
22164;SDS011;11248;52.512;13.520;2023-06-22T02:52:55;8.82;;;7.18;;
22164;SDS011;11248;52.512;13.520;2023-06-22T02:55:21;9.13;;;7.38;;
22164;SDS011;11248;52.512;13.520;2023-06-22T02:57:46;10.77;;;8.25;;
22164;SDS011;11248;52.512;13.520;2023-06-22T03:00:13;10.77;;;8.70;;
22164;SDS011;11248;52.512;13.520;2023-06-22T03:02:43;9.82;;;8.07;;
22164;SDS011;11248;52.512;13.520;2023-06-22T03:05:09;9.57;;;7.13;;
22164;SDS011;11248;52.512;13.520;2023-06-22T03:07:42;11.20;;;8.00;;
22164;SDS011;11248;52.512;13.520;2023-06-22T03:10:08;10.40;;;8.35;;
22164;SDS011;11248;52.512;13.520;2023-06-22T03:12:34;8.75;;;7.82;;
22164;SDS011;11248;52.512;13.520;2023-06-22T03:15:00;10.55;;;8.40;;
22164;SDS011;11248;52.512;13.520;2023-06-22T03:17:26;8.02;;;7.05;;
22164;SDS011;11248;52.512;13.520;2023-06-22T03:19:52;8.88;;;7.30;;
22164;SDS011;11248;52.512;13.520;2023-06-22T03:22:18;8.35;;;7.28;;
22164;SDS011;11248;52.512;13.520;2023-06-22T03:24:44;9.07;;;7.53;;
22164;SDS011;11248;52.512;13.520;2023-06-22T03:27:10;10.35;;;7.07;;
22164;SDS011;11248;52.512;13.520;2023-06-22T03:29:36;9.15;;;7.30;;
22164;SDS011;11248;52.512;13.520;2023-06-22T03:32:02;7.03;;;6.05;;
22164;SDS011;11248;52.512;13.520;2023-06-22T03:34:29;7.40;;;6.57;;
22164;SDS011;11248;52.512;13.520;2023-06-22T03:36:58;8.30;;;6.35;;
22164;SDS011;11248;52.512;13.520;2023-06-22T03:39:24;9.13;;;6.60;;
22164;SDS011;11248;52.512;13.520;2023-06-22T03:41:50;6.97;;;6.20;;
22164;SDS011;11248;52.512;13.520;2023-06-22T03:44:16;6.60;;;5.85;;
22164;SDS011;11248;52.512;13.520;2023-06-22T03:46:42;6.57;;;5.78;;
22164;SDS011;11248;52.512;13.520;2023-06-22T03:49:07;8.65;;;5.68;;
22164;SDS011;11248;52.512;13.520;2023-06-22T03:51:33;6.80;;;5.07;;
22164;SDS011;11248;52.512;13.520;2023-06-22T03:53:59;7.80;;;6.40;;
22164;SDS011;11248;52.512;13.520;2023-06-22T03:56:25;6.20;;;5.22;;
22164;SDS011;11248;52.512;13.520;2023-06-22T03:58:51;6.18;;;4.97;;
22164;SDS011;11248;52.512;13.520;2023-06-22T04:01:17;6.70;;;5.57;;
22164;SDS011;11248;52.512;13.520;2023-06-22T04:03:43;6.32;;;5.35;;
22164;SDS011;11248;52.512;13.520;2023-06-22T04:06:09;8.50;;;6.25;;
22164;SDS011;11248;52.512;13.520;2023-06-22T04:08:35;6.25;;;5.40;;
22164;SDS011;11248;52.512;13.520;2023-06-22T04:11:01;6.40;;;5.05;;
22164;SDS011;11248;52.512;13.520;2023-06-22T04:13:27;5.72;;;4.32;;
22164;SDS011;11248;52.512;13.520;2023-06-22T04:15:53;7.32;;;5.13;;
22164;SDS011;11248;52.512;13.520;2023-06-22T04:18:19;7.63;;;4.95;;
22164;SDS011;11248;52.512;13.520;2023-06-22T04:20:45;6.32;;;4.93;;
22164;SDS011;11248;52.512;13.520;2023-06-22T04:23:11;5.80;;;5.10;;
22164;SDS011;11248;52.512;13.520;2023-06-22T04:25:38;6.38;;;4.65;;
22164;SDS011;11248;52.512;13.520;2023-06-22T04:28:04;5.63;;;4.13;;
22164;SDS011;11248;52.512;13.520;2023-06-22T04:30:37;7.75;;;4.63;;
22164;SDS011;11248;52.512;13.520;2023-06-22T04:33:11;7.40;;;4.47;;
22164;SDS011;11248;52.512;13.520;2023-06-22T04:35:36;6.05;;;4.75;;
22164;SDS011;11248;52.512;13.520;2023-06-22T04:38:06;5.45;;;4.45;;
22164;SDS011;11248;52.512;13.520;2023-06-22T04:40:32;4.22;;;3.78;;
22164;SDS011;11248;52.512;13.520;2023-06-22T04:42:57;5.03;;;3.97;;
22164;SDS011;11248;52.512;13.520;2023-06-22T04:45:27;5.20;;;4.03;;
22164;SDS011;11248;52.512;13.520;2023-06-22T04:47:53;6.40;;;4.35;;
22164;SDS011;11248;52.512;13.520;2023-06-22T04:50:19;5.97;;;4.20;;
22164;SDS011;11248;52.512;13.520;2023-06-22T04:52:46;5.70;;;4.70;;
22164;SDS011;11248;52.512;13.520;2023-06-22T04:55:12;6.45;;;4.53;;
22164;SDS011;11248;52.512;13.520;2023-06-22T04:57:38;5.60;;;4.45;;
22164;SDS011;11248;52.512;13.520;2023-06-22T05:00:04;4.85;;;4.10;;
22164;SDS011;11248;52.512;13.520;2023-06-22T05:02:42;5.05;;;3.97;;
22164;SDS011;11248;52.512;13.520;2023-06-22T05:05:08;9.93;;;5.03;;
22164;SDS011;11248;52.512;13.520;2023-06-22T05:07:38;6.88;;;4.78;;
22164;SDS011;11248;52.512;13.520;2023-06-22T05:10:08;5.45;;;4.22;;
22164;SDS011;11248;52.512;13.520;2023-06-22T05:12:35;5.55;;;4.95;;
22164;SDS011;11248;52.512;13.520;2023-06-22T05:15:00;5.18;;;4.50;;
22164;SDS011;11248;52.512;13.520;2023-06-22T05:17:26;5.95;;;4.50;;
22164;SDS011;11248;52.512;13.520;2023-06-22T05:19:52;5.63;;;4.20;;
22164;SDS011;11248;52.512;13.520;2023-06-22T05:22:19;7.25;;;4.80;;
22164;SDS011;11248;52.512;13.520;2023-06-22T05:24:46;5.78;;;4.10;;
22164;SDS011;11248;52.512;13.520;2023-06-22T05:27:12;5.53;;;4.78;;
22164;SDS011;11248;52.512;13.520;2023-06-22T05:29:38;5.22;;;4.13;;
22164;SDS011;11248;52.512;13.520;2023-06-22T05:32:04;5.18;;;4.13;;
22164;SDS011;11248;52.512;13.520;2023-06-22T05:34:31;4.95;;;4.18;;
22164;SDS011;11248;52.512;13.520;2023-06-22T05:36:57;4.97;;;4.30;;
22164;SDS011;11248;52.512;13.520;2023-06-22T05:39:25;5.70;;;4.00;;
22164;SDS011;11248;52.512;13.520;2023-06-22T05:41:52;6.28;;;3.90;;
22164;SDS011;11248;52.512;13.520;2023-06-22T05:44:18;5.90;;;3.92;;
22164;SDS011;11248;52.512;13.520;2023-06-22T05:46:44;4.88;;;3.72;;
22164;SDS011;11248;52.512;13.520;2023-06-22T05:49:11;5.45;;;3.28;;
22164;SDS011;11248;52.512;13.520;2023-06-22T05:51:37;5.78;;;3.50;;
22164;SDS011;11248;52.512;13.520;2023-06-22T05:54:03;4.70;;;3.85;;
22164;SDS011;11248;52.512;13.520;2023-06-22T05:56:29;4.20;;;3.60;;
22164;SDS011;11248;52.512;13.520;2023-06-22T05:58:55;7.85;;;3.90;;
22164;SDS011;11248;52.512;13.520;2023-06-22T06:01:21;4.55;;;3.53;;
22164;SDS011;11248;52.512;13.520;2023-06-22T06:03:47;4.72;;;3.90;;
22164;SDS011;11248;52.512;13.520;2023-06-22T06:06:14;3.67;;;3.28;;
22164;SDS011;11248;52.512;13.520;2023-06-22T06:08:40;4.78;;;3.60;;
22164;SDS011;11248;52.512;13.520;2023-06-22T06:11:06;3.97;;;3.10;;
22164;SDS011;11248;52.512;13.520;2023-06-22T06:13:32;4.18;;;3.45;;
22164;SDS011;11248;52.512;13.520;2023-06-22T06:15:58;3.90;;;3.50;;
22164;SDS011;11248;52.512;13.520;2023-06-22T06:18:24;5.75;;;3.28;;
22164;SDS011;11248;52.512;13.520;2023-06-22T06:20:50;3.70;;;3.10;;
22164;SDS011;11248;52.512;13.520;2023-06-22T06:23:16;3.17;;;2.85;;
22164;SDS011;11248;52.512;13.520;2023-06-22T06:25:42;4.43;;;2.88;;
22164;SDS011;11248;52.512;13.520;2023-06-22T06:28:08;3.35;;;3.05;;
22164;SDS011;11248;52.512;13.520;2023-06-22T06:30:34;4.03;;;2.75;;
22164;SDS011;11248;52.512;13.520;2023-06-22T06:33:02;3.22;;;2.92;;
22164;SDS011;11248;52.512;13.520;2023-06-22T06:35:29;5.95;;;2.58;;
22164;SDS011;11248;52.512;13.520;2023-06-22T06:37:55;4.28;;;2.55;;
22164;SDS011;11248;52.512;13.520;2023-06-22T06:40:21;3.53;;;2.88;;
22164;SDS011;11248;52.512;13.520;2023-06-22T06:42:48;3.53;;;2.67;;
22164;SDS011;11248;52.512;13.520;2023-06-22T06:45:18;4.03;;;2.47;;
22164;SDS011;11248;52.512;13.520;2023-06-22T06:47:44;3.20;;;2.67;;
22164;SDS011;11248;52.512;13.520;2023-06-22T06:50:10;3.00;;;2.60;;
22164;SDS011;11248;52.512;13.520;2023-06-22T06:52:36;4.40;;;3.20;;
22164;SDS011;11248;52.512;13.520;2023-06-22T06:55:02;4.45;;;2.92;;
22164;SDS011;11248;52.512;13.520;2023-06-22T06:57:39;5.22;;;2.65;;
22164;SDS011;11248;52.512;13.520;2023-06-22T07:00:05;4.22;;;2.53;;
22164;SDS011;11248;52.512;13.520;2023-06-22T07:02:35;3.25;;;2.72;;
22164;SDS011;11248;52.512;13.520;2023-06-22T07:05:00;4.93;;;2.80;;
22164;SDS011;11248;52.512;13.520;2023-06-22T07:07:29;4.78;;;2.80;;
22164;SDS011;11248;52.512;13.520;2023-06-22T07:09:55;2.55;;;2.08;;
22164;SDS011;11248;52.512;13.520;2023-06-22T07:12:21;2.78;;;2.30;;
22164;SDS011;11248;52.512;13.520;2023-06-22T07:14:46;3.63;;;2.20;;
22164;SDS011;11248;52.512;13.520;2023-06-22T07:17:13;2.13;;;1.92;;
22164;SDS011;11248;52.512;13.520;2023-06-22T07:19:38;4.60;;;2.13;;
22164;SDS011;11248;52.512;13.520;2023-06-22T07:22:05;3.33;;;2.30;;
22164;SDS011;11248;52.512;13.520;2023-06-22T07:24:31;3.13;;;2.42;;
22164;SDS011;11248;52.512;13.520;2023-06-22T07:26:57;4.72;;;2.95;;
22164;SDS011;11248;52.512;13.520;2023-06-22T07:29:24;3.22;;;2.13;;
22164;SDS011;11248;52.512;13.520;2023-06-22T07:31:50;3.97;;;2.35;;
22164;SDS011;11248;52.512;13.520;2023-06-22T07:34:16;2.28;;;2.05;;
22164;SDS011;11248;52.512;13.520;2023-06-22T07:36:43;3.35;;;2.30;;
22164;SDS011;11248;52.512;13.520;2023-06-22T07:39:09;3.10;;;2.10;;
22164;SDS011;11248;52.512;13.520;2023-06-22T07:41:35;2.65;;;2.15;;
22164;SDS011;11248;52.512;13.520;2023-06-22T07:44:02;2.38;;;2.17;;
22164;SDS011;11248;52.512;13.520;2023-06-22T07:46:28;2.60;;;2.00;;
22164;SDS011;11248;52.512;13.520;2023-06-22T07:48:55;2.42;;;2.20;;
22164;SDS011;11248;52.512;13.520;2023-06-22T07:51:21;3.35;;;2.22;;
22164;SDS011;11248;52.512;13.520;2023-06-22T07:53:47;6.75;;;2.30;;
22164;SDS011;11248;52.512;13.520;2023-06-22T07:56:13;3.67;;;2.40;;
22164;SDS011;11248;52.512;13.520;2023-06-22T07:58:43;3.58;;;2.50;;
22164;SDS011;11248;52.512;13.520;2023-06-22T08:01:09;2.50;;;2.30;;
22164;SDS011;11248;52.512;13.520;2023-06-22T08:03:36;2.67;;;2.10;;
22164;SDS011;11248;52.512;13.520;2023-06-22T08:06:02;2.75;;;2.28;;
22164;SDS011;11248;52.512;13.520;2023-06-22T08:08:28;3.17;;;2.30;;
22164;SDS011;11248;52.512;13.520;2023-06-22T08:10:54;3.78;;;2.17;;
22164;SDS011;11248;52.512;13.520;2023-06-22T08:13:20;2.45;;;2.25;;
22164;SDS011;11248;52.512;13.520;2023-06-22T08:15:46;5.63;;;2.08;;
22164;SDS011;11248;52.512;13.520;2023-06-22T08:18:12;3.53;;;2.22;;
22164;SDS011;11248;52.512;13.520;2023-06-22T08:20:38;2.97;;;2.20;;
22164;SDS011;11248;52.512;13.520;2023-06-22T08:23:03;6.10;;;2.30;;
22164;SDS011;11248;52.512;13.520;2023-06-22T08:25:31;3.45;;;2.45;;
22164;SDS011;11248;52.512;13.520;2023-06-22T08:27:57;3.03;;;2.40;;
22164;SDS011;11248;52.512;13.520;2023-06-22T08:30:23;3.55;;;2.20;;
22164;SDS011;11248;52.512;13.520;2023-06-22T08:32:49;2.20;;;2.00;;
22164;SDS011;11248;52.512;13.520;2023-06-22T08:35:15;5.40;;;2.63;;
22164;SDS011;11248;52.512;13.520;2023-06-22T08:37:41;3.90;;;2.45;;
22164;SDS011;11248;52.512;13.520;2023-06-22T08:40:08;3.75;;;2.50;;
22164;SDS011;11248;52.512;13.520;2023-06-22T08:42:35;3.65;;;2.45;;
22164;SDS011;11248;52.512;13.520;2023-06-22T08:45:01;3.25;;;2.45;;
22164;SDS011;11248;52.512;13.520;2023-06-22T08:47:27;3.40;;;2.60;;
22164;SDS011;11248;52.512;13.520;2023-06-22T08:49:53;2.78;;;2.17;;
22164;SDS011;11248;52.512;13.520;2023-06-22T08:52:19;3.25;;;2.30;;
22164;SDS011;11248;52.512;13.520;2023-06-22T08:54:45;2.97;;;2.15;;
22164;SDS011;11248;52.512;13.520;2023-06-22T08:57:11;3.65;;;2.38;;
22164;SDS011;11248;52.512;13.520;2023-06-22T08:59:37;3.25;;;2.72;;
22164;SDS011;11248;52.512;13.520;2023-06-22T09:02:03;4.43;;;2.47;;
22164;SDS011;11248;52.512;13.520;2023-06-22T09:04:29;2.17;;;1.85;;
22164;SDS011;11248;52.512;13.520;2023-06-22T09:06:59;2.95;;;2.25;;
22164;SDS011;11248;52.512;13.520;2023-06-22T09:09:25;3.15;;;2.45;;
22164;SDS011;11248;52.512;13.520;2023-06-22T09:11:51;2.78;;;2.05;;
22164;SDS011;11248;52.512;13.520;2023-06-22T09:14:17;3.33;;;2.35;;
22164;SDS011;11248;52.512;13.520;2023-06-22T09:16:43;3.70;;;2.40;;
22164;SDS011;11248;52.512;13.520;2023-06-22T09:19:08;4.28;;;2.28;;
22164;SDS011;11248;52.512;13.520;2023-06-22T09:21:34;3.75;;;2.65;;
22164;SDS011;11248;52.512;13.520;2023-06-22T09:24:00;3.97;;;2.80;;
22164;SDS011;11248;52.512;13.520;2023-06-22T09:26:26;4.47;;;2.78;;
22164;SDS011;11248;52.512;13.520;2023-06-22T09:28:52;3.15;;;2.10;;
22164;SDS011;11248;52.512;13.520;2023-06-22T09:31:18;2.65;;;2.17;;
22164;SDS011;11248;52.512;13.520;2023-06-22T09:33:50;3.70;;;2.13;;
22164;SDS011;11248;52.512;13.520;2023-06-22T09:36:16;2.10;;;1.90;;
22164;SDS011;11248;52.512;13.520;2023-06-22T09:38:42;2.90;;;2.22;;
22164;SDS011;11248;52.512;13.520;2023-06-22T09:41:08;2.50;;;2.17;;
22164;SDS011;11248;52.512;13.520;2023-06-22T09:43:34;2.50;;;2.20;;
22164;SDS011;11248;52.512;13.520;2023-06-22T09:46:01;3.17;;;1.98;;
22164;SDS011;11248;52.512;13.520;2023-06-22T09:48:27;3.70;;;2.10;;
22164;SDS011;11248;52.512;13.520;2023-06-22T09:50:53;4.63;;;2.47;;
22164;SDS011;11248;52.512;13.520;2023-06-22T09:53:19;4.60;;;2.22;;
22164;SDS011;11248;52.512;13.520;2023-06-22T09:55:46;2.78;;;2.35;;
22164;SDS011;11248;52.512;13.520;2023-06-22T09:58:11;2.53;;;2.20;;
22164;SDS011;11248;52.512;13.520;2023-06-22T10:00:37;2.60;;;2.25;;
22164;SDS011;11248;52.512;13.520;2023-06-22T10:03:03;2.97;;;2.40;;
22164;SDS011;11248;52.512;13.520;2023-06-22T10:05:29;3.75;;;2.42;;
22164;SDS011;11248;52.512;13.520;2023-06-22T10:07:56;2.33;;;2.05;;
22164;SDS011;11248;52.512;13.520;2023-06-22T10:10:22;3.30;;;2.22;;
22164;SDS011;11248;52.512;13.520;2023-06-22T10:12:54;4.13;;;2.60;;
22164;SDS011;11248;52.512;13.520;2023-06-22T10:15:20;3.53;;;2.13;;
22164;SDS011;11248;52.512;13.520;2023-06-22T10:17:46;3.28;;;2.33;;
22164;SDS011;11248;52.512;13.520;2023-06-22T10:20:13;3.25;;;2.20;;
22164;SDS011;11248;52.512;13.520;2023-06-22T10:22:42;2.50;;;2.30;;
22164;SDS011;11248;52.512;13.520;2023-06-22T10:25:09;6.15;;;2.35;;
22164;SDS011;11248;52.512;13.520;2023-06-22T10:27:35;3.13;;;2.22;;
22164;SDS011;11248;52.512;13.520;2023-06-22T10:30:01;3.05;;;2.15;;
22164;SDS011;11248;52.512;13.520;2023-06-22T10:32:27;2.80;;;2.15;;
22164;SDS011;11248;52.512;13.520;2023-06-22T10:34:53;2.50;;;2.00;;
22164;SDS011;11248;52.512;13.520;2023-06-22T10:37:19;4.72;;;2.30;;
22164;SDS011;11248;52.512;13.520;2023-06-22T10:39:45;4.15;;;2.40;;
22164;SDS011;11248;52.512;13.520;2023-06-22T10:42:11;2.63;;;2.20;;
22164;SDS011;11248;52.512;13.520;2023-06-22T10:44:37;2.45;;;2.25;;
22164;SDS011;11248;52.512;13.520;2023-06-22T10:47:06;2.58;;;2.30;;
22164;SDS011;11248;52.512;13.520;2023-06-22T10:49:32;3.85;;;2.38;;
22164;SDS011;11248;52.512;13.520;2023-06-22T10:51:58;3.45;;;2.47;;
22164;SDS011;11248;52.512;13.520;2023-06-22T10:54:24;3.25;;;2.92;;
22164;SDS011;11248;52.512;13.520;2023-06-22T10:56:49;3.25;;;2.33;;
22164;SDS011;11248;52.512;13.520;2023-06-22T10:59:15;2.50;;;2.20;;
22164;SDS011;11248;52.512;13.520;2023-06-22T11:01:41;2.92;;;2.58;;
22164;SDS011;11248;52.512;13.520;2023-06-22T11:04:07;2.70;;;2.40;;
22164;SDS011;11248;52.512;13.520;2023-06-22T11:06:33;2.92;;;2.60;;
22164;SDS011;11248;52.512;13.520;2023-06-22T11:08:59;2.10;;;1.90;;
22164;SDS011;11248;52.512;13.520;2023-06-22T11:11:25;2.97;;;2.47;;
22164;SDS011;11248;52.512;13.520;2023-06-22T11:13:52;3.05;;;2.38;;
22164;SDS011;11248;52.512;13.520;2023-06-22T11:16:18;4.00;;;2.22;;
22164;SDS011;11248;52.512;13.520;2023-06-22T11:18:44;5.40;;;2.47;;
22164;SDS011;11248;52.512;13.520;2023-06-22T11:21:10;2.70;;;1.95;;
22164;SDS011;11248;52.512;13.520;2023-06-22T11:23:36;3.05;;;2.00;;
22164;SDS011;11248;52.512;13.520;2023-06-22T11:26:01;4.50;;;2.30;;
22164;SDS011;11248;52.512;13.520;2023-06-22T11:28:27;2.50;;;2.10;;
22164;SDS011;11248;52.512;13.520;2023-06-22T11:30:53;3.92;;;2.60;;
22164;SDS011;11248;52.512;13.520;2023-06-22T11:33:19;2.38;;;1.95;;
22164;SDS011;11248;52.512;13.520;2023-06-22T11:35:45;3.50;;;2.70;;
22164;SDS011;11248;52.512;13.520;2023-06-22T11:38:11;3.05;;;2.20;;
22164;SDS011;11248;52.512;13.520;2023-06-22T11:40:37;2.40;;;2.20;;
22164;SDS011;11248;52.512;13.520;2023-06-22T11:43:03;4.07;;;2.03;;
22164;SDS011;11248;52.512;13.520;2023-06-22T11:45:29;2.50;;;2.30;;
22164;SDS011;11248;52.512;13.520;2023-06-22T11:47:55;2.78;;;2.42;;
22164;SDS011;11248;52.512;13.520;2023-06-22T11:50:21;4.13;;;2.83;;
22164;SDS011;11248;52.512;13.520;2023-06-22T11:52:47;5.00;;;2.50;;
22164;SDS011;11248;52.512;13.520;2023-06-22T11:55:13;3.60;;;2.65;;
22164;SDS011;11248;52.512;13.520;2023-06-22T11:57:51;3.67;;;2.63;;
22164;SDS011;11248;52.512;13.520;2023-06-22T12:00:17;2.60;;;2.40;;
22164;SDS011;11248;52.512;13.520;2023-06-22T12:02:44;2.50;;;2.30;;
22164;SDS011;11248;52.512;13.520;2023-06-22T12:05:10;2.92;;;2.30;;
22164;SDS011;11248;52.512;13.520;2023-06-22T12:07:37;4.45;;;2.60;;
22164;SDS011;11248;52.512;13.520;2023-06-22T12:10:03;5.35;;;2.50;;
22164;SDS011;11248;52.512;13.520;2023-06-22T12:12:29;4.57;;;2.40;;
22164;SDS011;11248;52.512;13.520;2023-06-22T12:14:55;3.00;;;2.60;;
22164;SDS011;11248;52.512;13.520;2023-06-22T12:17:21;3.15;;;2.42;;
22164;SDS011;11248;52.512;13.520;2023-06-22T12:19:47;2.63;;;2.30;;
22164;SDS011;11248;52.512;13.520;2023-06-22T12:22:13;2.92;;;2.42;;
22164;SDS011;11248;52.512;13.520;2023-06-22T12:24:38;3.50;;;2.60;;
22164;SDS011;11248;52.512;13.520;2023-06-22T12:27:04;3.05;;;2.20;;
22164;SDS011;11248;52.512;13.520;2023-06-22T12:29:30;3.63;;;2.30;;
22164;SDS011;11248;52.512;13.520;2023-06-22T12:31:56;3.08;;;2.58;;
22164;SDS011;11248;52.512;13.520;2023-06-22T12:34:22;3.80;;;2.83;;
22164;SDS011;11248;52.512;13.520;2023-06-22T12:36:48;3.15;;;2.85;;
22164;SDS011;11248;52.512;13.520;2023-06-22T12:39:14;4.72;;;2.90;;
22164;SDS011;11248;52.512;13.520;2023-06-22T12:41:40;4.13;;;2.65;;
22164;SDS011;11248;52.512;13.520;2023-06-22T12:44:06;3.70;;;2.63;;
22164;SDS011;11248;52.512;13.520;2023-06-22T12:46:32;2.97;;;2.63;;
22164;SDS011;11248;52.512;13.520;2023-06-22T12:49:03;3.00;;;2.65;;
22164;SDS011;11248;52.512;13.520;2023-06-22T12:51:29;2.92;;;2.63;;
22164;SDS011;11248;52.512;13.520;2023-06-22T12:53:56;2.72;;;2.50;;
22164;SDS011;11248;52.512;13.520;2023-06-22T12:56:22;4.18;;;2.75;;
22164;SDS011;11248;52.512;13.520;2023-06-22T12:58:48;3.38;;;2.47;;
22164;SDS011;11248;52.512;13.520;2023-06-22T13:01:14;3.30;;;2.75;;
22164;SDS011;11248;52.512;13.520;2023-06-22T13:03:41;3.85;;;2.88;;
22164;SDS011;11248;52.512;13.520;2023-06-22T13:06:07;4.05;;;2.90;;
22164;SDS011;11248;52.512;13.520;2023-06-22T13:08:33;2.85;;;2.42;;
22164;SDS011;11248;52.512;13.520;2023-06-22T13:10:59;2.83;;;2.60;;
22164;SDS011;11248;52.512;13.520;2023-06-22T13:13:25;3.25;;;2.63;;
22164;SDS011;11248;52.512;13.520;2023-06-22T13:15:54;3.15;;;2.55;;
22164;SDS011;11248;52.512;13.520;2023-06-22T13:18:20;4.35;;;2.83;;
22164;SDS011;11248;52.512;13.520;2023-06-22T13:20:46;3.30;;;3.00;;
22164;SDS011;11248;52.512;13.520;2023-06-22T13:23:12;3.47;;;2.92;;
22164;SDS011;11248;52.512;13.520;2023-06-22T13:25:38;2.70;;;2.50;;
22164;SDS011;11248;52.512;13.520;2023-06-22T13:28:04;4.18;;;2.85;;
22164;SDS011;11248;52.512;13.520;2023-06-22T13:30:30;3.42;;;2.50;;
22164;SDS011;11248;52.512;13.520;2023-06-22T13:32:56;3.10;;;2.80;;
22164;SDS011;11248;52.512;13.520;2023-06-22T13:35:22;2.65;;;2.40;;
22164;SDS011;11248;52.512;13.520;2023-06-22T13:37:48;3.05;;;2.75;;
22164;SDS011;11248;52.512;13.520;2023-06-22T13:40:14;3.78;;;3.10;;
22164;SDS011;11248;52.512;13.520;2023-06-22T13:42:40;4.65;;;3.13;;
22164;SDS011;11248;52.512;13.520;2023-06-22T13:45:07;2.92;;;2.67;;
22164;SDS011;11248;52.512;13.520;2023-06-22T13:47:33;4.93;;;3.00;;
22164;SDS011;11248;52.512;13.520;2023-06-22T13:49:59;3.05;;;2.75;;
22164;SDS011;11248;52.512;13.520;2023-06-22T13:52:25;3.30;;;3.00;;
22164;SDS011;11248;52.512;13.520;2023-06-22T13:54:51;3.53;;;2.95;;
22164;SDS011;11248;52.512;13.520;2023-06-22T13:57:17;7.75;;;3.42;;
22164;SDS011;11248;52.512;13.520;2023-06-22T13:59:43;3.83;;;2.83;;
22164;SDS011;11248;52.512;13.520;2023-06-22T14:02:08;3.55;;;3.10;;
22164;SDS011;11248;52.512;13.520;2023-06-22T14:04:34;3.13;;;2.83;;
22164;SDS011;11248;52.512;13.520;2023-06-22T14:07:00;3.83;;;3.25;;
22164;SDS011;11248;52.512;13.520;2023-06-22T14:09:26;3.45;;;3.15;;
22164;SDS011;11248;52.512;13.520;2023-06-22T14:11:53;3.40;;;3.10;;
22164;SDS011;11248;52.512;13.520;2023-06-22T14:14:20;2.83;;;2.63;;
22164;SDS011;11248;52.512;13.520;2023-06-22T14:16:46;3.47;;;2.95;;
22164;SDS011;11248;52.512;13.520;2023-06-22T14:19:14;4.38;;;3.03;;
22164;SDS011;11248;52.512;13.520;2023-06-22T14:21:40;2.80;;;2.60;;
22164;SDS011;11248;52.512;13.520;2023-06-22T14:24:06;3.00;;;2.70;;
22164;SDS011;11248;52.512;13.520;2023-06-22T14:26:32;4.88;;;3.13;;
22164;SDS011;11248;52.512;13.520;2023-06-22T14:28:58;3.20;;;2.90;;
22164;SDS011;11248;52.512;13.520;2023-06-22T14:31:24;3.50;;;3.20;;
22164;SDS011;11248;52.512;13.520;2023-06-22T14:33:50;3.03;;;2.72;;
22164;SDS011;11248;52.512;13.520;2023-06-22T14:36:16;3.45;;;3.10;;
22164;SDS011;11248;52.512;13.520;2023-06-22T14:38:42;3.17;;;2.88;;